sensor_id;sensor_type;location;lat;lon;timestamp;P1;durP1;ratioP1;P2;durP2;ratioP2
3523;SDS011;1776;53.330;11.498;2023-04-28T00:00:10;6.33;;;4.47;;
3523;SDS011;1776;53.330;11.498;2023-04-28T00:02:35;7.87;;;4.67;;
3523;SDS011;1776;53.330;11.498;2023-04-28T00:05:01;7.93;;;4.97;;
3523;SDS011;1776;53.330;11.498;2023-04-28T00:07:26;10.97;;;4.50;;
3523;SDS011;1776;53.330;11.498;2023-04-28T00:09:51;5.60;;;4.10;;
3523;SDS011;1776;53.330;11.498;2023-04-28T00:12:17;8.63;;;3.70;;
3523;SDS011;1776;53.330;11.498;2023-04-28T00:14:42;6.57;;;3.90;;
3523;SDS011;1776;53.330;11.498;2023-04-28T00:17:07;4.50;;;3.77;;
3523;SDS011;1776;53.330;11.498;2023-04-28T00:19:34;9.27;;;4.63;;
3523;SDS011;1776;53.330;11.498;2023-04-28T00:22:00;11.77;;;4.20;;
3523;SDS011;1776;53.330;11.498;2023-04-28T00:24:25;6.30;;;4.40;;
3523;SDS011;1776;53.330;11.498;2023-04-28T00:26:50;5.63;;;5.07;;
3523;SDS011;1776;53.330;11.498;2023-04-28T00:29:16;7.20;;;3.83;;
3523;SDS011;1776;53.330;11.498;2023-04-28T00:31:41;4.57;;;4.10;;
3523;SDS011;1776;53.330;11.498;2023-04-28T00:34:08;9.33;;;5.83;;
3523;SDS011;1776;53.330;11.498;2023-04-28T00:36:38;9.10;;;7.03;;
3523;SDS011;1776;53.330;11.498;2023-04-28T00:39:03;15.53;;;7.10;;
3523;SDS011;1776;53.330;11.498;2023-04-28T00:41:28;7.93;;;5.10;;
3523;SDS011;1776;53.330;11.498;2023-04-28T00:43:53;9.10;;;5.03;;
3523;SDS011;1776;53.330;11.498;2023-04-28T00:46:20;5.03;;;4.47;;
3523;SDS011;1776;53.330;11.498;2023-04-28T00:48:48;7.53;;;4.03;;
3523;SDS011;1776;53.330;11.498;2023-04-28T00:51:14;7.63;;;4.10;;
3523;SDS011;1776;53.330;11.498;2023-04-28T00:53:40;7.37;;;4.37;;
3523;SDS011;1776;53.330;11.498;2023-04-28T00:56:06;5.17;;;3.80;;
3523;SDS011;1776;53.330;11.498;2023-04-28T00:58:32;5.13;;;3.80;;
3523;SDS011;1776;53.330;11.498;2023-04-28T01:01:05;6.40;;;4.07;;
3523;SDS011;1776;53.330;11.498;2023-04-28T01:03:33;7.90;;;4.60;;
3523;SDS011;1776;53.330;11.498;2023-04-28T01:05:59;6.00;;;3.43;;
3523;SDS011;1776;53.330;11.498;2023-04-28T01:08:29;5.53;;;4.40;;
3523;SDS011;1776;53.330;11.498;2023-04-28T01:10:54;5.03;;;2.90;;
3523;SDS011;1776;53.330;11.498;2023-04-28T01:13:20;5.00;;;3.20;;
3523;SDS011;1776;53.330;11.498;2023-04-28T01:15:45;8.47;;;3.73;;
3523;SDS011;1776;53.330;11.498;2023-04-28T01:18:11;4.40;;;4.00;;
3523;SDS011;1776;53.330;11.498;2023-04-28T01:20:37;6.83;;;4.23;;
3523;SDS011;1776;53.330;11.498;2023-04-28T01:23:02;6.30;;;4.03;;
3523;SDS011;1776;53.330;11.498;2023-04-28T01:25:28;5.33;;;3.20;;
3523;SDS011;1776;53.330;11.498;2023-04-28T01:27:53;8.43;;;3.67;;
3523;SDS011;1776;53.330;11.498;2023-04-28T01:30:18;5.43;;;3.43;;
3523;SDS011;1776;53.330;11.498;2023-04-28T01:32:43;5.93;;;2.97;;
3523;SDS011;1776;53.330;11.498;2023-04-28T01:35:09;5.20;;;3.70;;
3523;SDS011;1776;53.330;11.498;2023-04-28T01:37:34;4.00;;;3.53;;
3523;SDS011;1776;53.330;11.498;2023-04-28T01:39:59;5.20;;;3.50;;
3523;SDS011;1776;53.330;11.498;2023-04-28T01:42:24;7.27;;;3.30;;
3523;SDS011;1776;53.330;11.498;2023-04-28T01:44:50;4.37;;;3.17;;
3523;SDS011;1776;53.330;11.498;2023-04-28T01:47:15;3.57;;;2.90;;
3523;SDS011;1776;53.330;11.498;2023-04-28T01:49:40;6.70;;;3.73;;
3523;SDS011;1776;53.330;11.498;2023-04-28T01:52:05;3.53;;;3.23;;
3523;SDS011;1776;53.330;11.498;2023-04-28T01:54:31;7.23;;;3.50;;
3523;SDS011;1776;53.330;11.498;2023-04-28T01:56:56;5.80;;;3.03;;
3523;SDS011;1776;53.330;11.498;2023-04-28T01:59:22;4.90;;;2.80;;
3523;SDS011;1776;53.330;11.498;2023-04-28T02:01:48;3.93;;;3.23;;
3523;SDS011;1776;53.330;11.498;2023-04-28T02:04:13;3.70;;;2.93;;
3523;SDS011;1776;53.330;11.498;2023-04-28T02:06:38;4.87;;;3.57;;
3523;SDS011;1776;53.330;11.498;2023-04-28T02:09:03;5.33;;;3.03;;
3523;SDS011;1776;53.330;11.498;2023-04-28T02:11:29;6.83;;;3.47;;
3523;SDS011;1776;53.330;11.498;2023-04-28T02:13:54;5.70;;;3.77;;
3523;SDS011;1776;53.330;11.498;2023-04-28T02:16:19;9.10;;;3.47;;
3523;SDS011;1776;53.330;11.498;2023-04-28T02:18:45;5.10;;;2.80;;
3523;SDS011;1776;53.330;11.498;2023-04-28T02:21:10;6.37;;;3.57;;
3523;SDS011;1776;53.330;11.498;2023-04-28T02:23:36;4.47;;;3.87;;
3523;SDS011;1776;53.330;11.498;2023-04-28T02:26:02;4.10;;;3.00;;
3523;SDS011;1776;53.330;11.498;2023-04-28T02:28:28;3.27;;;2.73;;
3523;SDS011;1776;53.330;11.498;2023-04-28T02:31:15;6.23;;;3.47;;
3523;SDS011;1776;53.330;11.498;2023-04-28T02:33:40;7.23;;;4.00;;
3523;SDS011;1776;53.330;11.498;2023-04-28T02:36:06;4.30;;;2.90;;
3523;SDS011;1776;53.330;11.498;2023-04-28T02:38:32;5.60;;;3.60;;
3523;SDS011;1776;53.330;11.498;2023-04-28T02:41:01;4.87;;;3.97;;
3523;SDS011;1776;53.330;11.498;2023-04-28T02:43:31;3.60;;;3.00;;
3523;SDS011;1776;53.330;11.498;2023-04-28T02:45:57;2.93;;;2.67;;
3523;SDS011;1776;53.330;11.498;2023-04-28T02:48:23;6.80;;;3.20;;
3523;SDS011;1776;53.330;11.498;2023-04-28T02:50:48;5.20;;;3.30;;
3523;SDS011;1776;53.330;11.498;2023-04-28T02:53:14;4.87;;;3.73;;
3523;SDS011;1776;53.330;11.498;2023-04-28T02:55:39;6.53;;;3.60;;
3523;SDS011;1776;53.330;11.498;2023-04-28T02:58:05;3.47;;;3.13;;
3523;SDS011;1776;53.330;11.498;2023-04-28T03:00:30;8.10;;;3.50;;
3523;SDS011;1776;53.330;11.498;2023-04-28T03:02:55;6.03;;;4.00;;
3523;SDS011;1776;53.330;11.498;2023-04-28T03:05:20;5.07;;;3.57;;
3523;SDS011;1776;53.330;11.498;2023-04-28T03:07:46;4.57;;;3.47;;
3523;SDS011;1776;53.330;11.498;2023-04-28T03:10:11;7.40;;;3.73;;
3523;SDS011;1776;53.330;11.498;2023-04-28T03:12:36;4.20;;;3.77;;
3523;SDS011;1776;53.330;11.498;2023-04-28T03:15:02;4.10;;;3.33;;
3523;SDS011;1776;53.330;11.498;2023-04-28T03:17:27;4.97;;;3.40;;
3523;SDS011;1776;53.330;11.498;2023-04-28T03:19:53;4.27;;;3.20;;
3523;SDS011;1776;53.330;11.498;2023-04-28T03:22:18;9.97;;;4.50;;
3523;SDS011;1776;53.330;11.498;2023-04-28T03:24:43;6.37;;;3.70;;
3523;SDS011;1776;53.330;11.498;2023-04-28T03:27:08;6.50;;;3.60;;
3523;SDS011;1776;53.330;11.498;2023-04-28T03:29:34;4.30;;;3.43;;
3523;SDS011;1776;53.330;11.498;2023-04-28T03:32:00;5.60;;;3.80;;
3523;SDS011;1776;53.330;11.498;2023-04-28T03:34:26;6.40;;;3.40;;
3523;SDS011;1776;53.330;11.498;2023-04-28T03:36:51;4.23;;;3.83;;
3523;SDS011;1776;53.330;11.498;2023-04-28T03:39:16;5.50;;;3.30;;
3523;SDS011;1776;53.330;11.498;2023-04-28T03:41:41;3.43;;;3.10;;
3523;SDS011;1776;53.330;11.498;2023-04-28T03:44:07;5.83;;;2.90;;
3523;SDS011;1776;53.330;11.498;2023-04-28T03:46:33;7.63;;;4.30;;
3523;SDS011;1776;53.330;11.498;2023-04-28T03:48:58;6.03;;;3.20;;
3523;SDS011;1776;53.330;11.498;2023-04-28T03:51:26;5.17;;;3.60;;
3523;SDS011;1776;53.330;11.498;2023-04-28T03:53:52;4.90;;;4.00;;
3523;SDS011;1776;53.330;11.498;2023-04-28T03:56:17;5.70;;;3.87;;
3523;SDS011;1776;53.330;11.498;2023-04-28T03:58:42;6.67;;;4.20;;
3523;SDS011;1776;53.330;11.498;2023-04-28T04:01:08;5.30;;;3.77;;
3523;SDS011;1776;53.330;11.498;2023-04-28T04:03:33;5.13;;;4.13;;
3523;SDS011;1776;53.330;11.498;2023-04-28T04:05:58;7.23;;;3.50;;
3523;SDS011;1776;53.330;11.498;2023-04-28T04:08:24;6.00;;;3.40;;
3523;SDS011;1776;53.330;11.498;2023-04-28T04:10:49;6.53;;;3.20;;
3523;SDS011;1776;53.330;11.498;2023-04-28T04:13:14;7.57;;;4.20;;
3523;SDS011;1776;53.330;11.498;2023-04-28T04:15:40;7.23;;;3.63;;
3523;SDS011;1776;53.330;11.498;2023-04-28T04:18:05;5.53;;;3.70;;
3523;SDS011;1776;53.330;11.498;2023-04-28T04:20:30;7.53;;;3.80;;
3523;SDS011;1776;53.330;11.498;2023-04-28T04:22:56;5.53;;;3.60;;
3523;SDS011;1776;53.330;11.498;2023-04-28T04:25:21;5.60;;;4.20;;
3523;SDS011;1776;53.330;11.498;2023-04-28T04:27:46;6.80;;;3.90;;
3523;SDS011;1776;53.330;11.498;2023-04-28T04:30:11;10.50;;;4.90;;
3523;SDS011;1776;53.330;11.498;2023-04-28T04:32:37;5.53;;;3.70;;
3523;SDS011;1776;53.330;11.498;2023-04-28T04:35:03;5.00;;;3.30;;
3523;SDS011;1776;53.330;11.498;2023-04-28T04:37:28;6.73;;;4.30;;
3523;SDS011;1776;53.330;11.498;2023-04-28T04:39:54;6.10;;;4.23;;
3523;SDS011;1776;53.330;11.498;2023-04-28T04:42:19;4.80;;;3.50;;
3523;SDS011;1776;53.330;11.498;2023-04-28T04:44:45;5.83;;;3.77;;
3523;SDS011;1776;53.330;11.498;2023-04-28T04:47:10;7.20;;;3.83;;
3523;SDS011;1776;53.330;11.498;2023-04-28T04:49:35;5.63;;;3.40;;
3523;SDS011;1776;53.330;11.498;2023-04-28T04:52:00;5.43;;;3.93;;
3523;SDS011;1776;53.330;11.498;2023-04-28T04:54:26;6.73;;;3.87;;
3523;SDS011;1776;53.330;11.498;2023-04-28T04:56:52;4.77;;;3.87;;
3523;SDS011;1776;53.330;11.498;2023-04-28T04:59:17;8.57;;;4.43;;
3523;SDS011;1776;53.330;11.498;2023-04-28T05:01:42;5.80;;;3.60;;
3523;SDS011;1776;53.330;11.498;2023-04-28T05:04:08;4.77;;;2.93;;
3523;SDS011;1776;53.330;11.498;2023-04-28T05:06:34;4.70;;;3.47;;
3523;SDS011;1776;53.330;11.498;2023-04-28T05:08:59;4.83;;;3.30;;
3523;SDS011;1776;53.330;11.498;2023-04-28T05:11:24;4.43;;;3.30;;
3523;SDS011;1776;53.330;11.498;2023-04-28T05:13:50;5.40;;;3.60;;
3523;SDS011;1776;53.330;11.498;2023-04-28T05:16:15;4.17;;;3.17;;
3523;SDS011;1776;53.330;11.498;2023-04-28T05:18:40;13.00;;;3.33;;
3523;SDS011;1776;53.330;11.498;2023-04-28T05:21:06;6.37;;;3.30;;
3523;SDS011;1776;53.330;11.498;2023-04-28T05:23:31;2.97;;;2.30;;
3523;SDS011;1776;53.330;11.498;2023-04-28T05:25:56;7.37;;;3.20;;
3523;SDS011;1776;53.330;11.498;2023-04-28T05:28:22;12.33;;;3.60;;
3523;SDS011;1776;53.330;11.498;2023-04-28T05:30:47;4.70;;;2.90;;
3523;SDS011;1776;53.330;11.498;2023-04-28T05:33:13;4.37;;;2.43;;
3523;SDS011;1776;53.330;11.498;2023-04-28T05:35:38;4.50;;;3.30;;
3523;SDS011;1776;53.330;11.498;2023-04-28T05:38:03;3.93;;;2.93;;
3523;SDS011;1776;53.330;11.498;2023-04-28T05:40:28;5.60;;;2.73;;
3523;SDS011;1776;53.330;11.498;2023-04-28T05:42:54;5.07;;;2.93;;
3523;SDS011;1776;53.330;11.498;2023-04-28T05:45:19;5.23;;;3.40;;
3523;SDS011;1776;53.330;11.498;2023-04-28T05:47:45;6.03;;;2.90;;
3523;SDS011;1776;53.330;11.498;2023-04-28T05:50:10;5.87;;;3.13;;
3523;SDS011;1776;53.330;11.498;2023-04-28T05:52:36;5.93;;;2.67;;
3523;SDS011;1776;53.330;11.498;2023-04-28T05:55:01;3.60;;;2.83;;
3523;SDS011;1776;53.330;11.498;2023-04-28T05:57:26;4.60;;;2.40;;
3523;SDS011;1776;53.330;11.498;2023-04-28T05:59:51;3.10;;;2.80;;
3523;SDS011;1776;53.330;11.498;2023-04-28T06:02:17;10.23;;;3.13;;
3523;SDS011;1776;53.330;11.498;2023-04-28T06:04:42;3.90;;;2.87;;
3523;SDS011;1776;53.330;11.498;2023-04-28T06:07:08;7.63;;;2.43;;
3523;SDS011;1776;53.330;11.498;2023-04-28T06:09:33;7.00;;;2.50;;
3523;SDS011;1776;53.330;11.498;2023-04-28T06:12:00;2.73;;;2.47;;
3523;SDS011;1776;53.330;11.498;2023-04-28T06:14:25;5.70;;;3.20;;
3523;SDS011;1776;53.330;11.498;2023-04-28T06:16:51;3.67;;;2.93;;
3523;SDS011;1776;53.330;11.498;2023-04-28T06:19:16;3.40;;;3.00;;
3523;SDS011;1776;53.330;11.498;2023-04-28T06:21:43;4.83;;;3.10;;
3523;SDS011;1776;53.330;11.498;2023-04-28T06:24:09;7.67;;;2.77;;
3523;SDS011;1776;53.330;11.498;2023-04-28T06:26:34;9.53;;;3.90;;
3523;SDS011;1776;53.330;11.498;2023-04-28T06:29:00;5.10;;;2.40;;
3523;SDS011;1776;53.330;11.498;2023-04-28T06:31:25;8.53;;;2.60;;
3523;SDS011;1776;53.330;11.498;2023-04-28T06:33:50;8.13;;;3.33;;
3523;SDS011;1776;53.330;11.498;2023-04-28T06:36:15;4.87;;;2.60;;
3523;SDS011;1776;53.330;11.498;2023-04-28T06:38:42;6.03;;;2.60;;
3523;SDS011;1776;53.330;11.498;2023-04-28T06:41:08;4.20;;;3.30;;
3523;SDS011;1776;53.330;11.498;2023-04-28T06:43:34;5.33;;;2.93;;
3523;SDS011;1776;53.330;11.498;2023-04-28T06:45:59;5.40;;;2.93;;
3523;SDS011;1776;53.330;11.498;2023-04-28T06:48:25;9.00;;;3.80;;
3523;SDS011;1776;53.330;11.498;2023-04-28T06:50:50;5.60;;;2.60;;
3523;SDS011;1776;53.330;11.498;2023-04-28T06:53:15;4.37;;;3.20;;
3523;SDS011;1776;53.330;11.498;2023-04-28T06:55:41;6.27;;;2.83;;
3523;SDS011;1776;53.330;11.498;2023-04-28T06:58:06;5.67;;;2.80;;
3523;SDS011;1776;53.330;11.498;2023-04-28T07:00:32;3.07;;;2.30;;
3523;SDS011;1776;53.330;11.498;2023-04-28T07:02:58;4.03;;;3.47;;
3523;SDS011;1776;53.330;11.498;2023-04-28T07:05:23;5.60;;;3.53;;
3523;SDS011;1776;53.330;11.498;2023-04-28T07:07:48;3.63;;;2.53;;
3523;SDS011;1776;53.330;11.498;2023-04-28T07:10:13;6.30;;;3.47;;
3523;SDS011;1776;53.330;11.498;2023-04-28T07:12:39;5.27;;;3.17;;
3523;SDS011;1776;53.330;11.498;2023-04-28T07:15:05;4.83;;;3.03;;
3523;SDS011;1776;53.330;11.498;2023-04-28T07:17:31;3.13;;;2.27;;
3523;SDS011;1776;53.330;11.498;2023-04-28T07:19:56;6.43;;;3.53;;
3523;SDS011;1776;53.330;11.498;2023-04-28T07:22:21;5.60;;;3.60;;
3523;SDS011;1776;53.330;11.498;2023-04-28T07:24:46;4.87;;;3.10;;
3523;SDS011;1776;53.330;11.498;2023-04-28T07:27:12;9.83;;;4.30;;
3523;SDS011;1776;53.330;11.498;2023-04-28T07:29:37;9.00;;;3.13;;
3523;SDS011;1776;53.330;11.498;2023-04-28T07:32:02;3.83;;;2.60;;
3523;SDS011;1776;53.330;11.498;2023-04-28T07:34:29;6.83;;;3.30;;
3523;SDS011;1776;53.330;11.498;2023-04-28T07:36:55;5.27;;;3.00;;
3523;SDS011;1776;53.330;11.498;2023-04-28T07:39:20;4.87;;;3.27;;
3523;SDS011;1776;53.330;11.498;2023-04-28T07:41:46;4.13;;;3.40;;
3523;SDS011;1776;53.330;11.498;2023-04-28T07:44:11;4.33;;;3.57;;
3523;SDS011;1776;53.330;11.498;2023-04-28T07:46:37;7.10;;;3.27;;
3523;SDS011;1776;53.330;11.498;2023-04-28T07:49:02;4.90;;;2.80;;
3523;SDS011;1776;53.330;11.498;2023-04-28T07:51:28;6.13;;;3.70;;
3523;SDS011;1776;53.330;11.498;2023-04-28T07:53:55;3.27;;;2.97;;
3523;SDS011;1776;53.330;11.498;2023-04-28T07:56:20;4.83;;;3.03;;
3523;SDS011;1776;53.330;11.498;2023-04-28T07:58:46;6.33;;;3.00;;
3523;SDS011;1776;53.330;11.498;2023-04-28T08:01:11;8.70;;;2.97;;
3523;SDS011;1776;53.330;11.498;2023-04-28T08:03:37;6.10;;;3.00;;
3523;SDS011;1776;53.330;11.498;2023-04-28T08:06:02;5.83;;;3.67;;
3523;SDS011;1776;53.330;11.498;2023-04-28T08:08:28;4.43;;;3.43;;
3523;SDS011;1776;53.330;11.498;2023-04-28T08:10:54;4.13;;;3.33;;
3523;SDS011;1776;53.330;11.498;2023-04-28T08:13:19;7.20;;;3.20;;
3523;SDS011;1776;53.330;11.498;2023-04-28T08:15:46;6.57;;;3.70;;
3523;SDS011;1776;53.330;11.498;2023-04-28T08:18:11;4.07;;;3.53;;
3523;SDS011;1776;53.330;11.498;2023-04-28T08:20:37;5.60;;;3.30;;
3523;SDS011;1776;53.330;11.498;2023-04-28T08:23:02;7.10;;;3.40;;
3523;SDS011;1776;53.330;11.498;2023-04-28T08:25:27;7.50;;;4.10;;
3523;SDS011;1776;53.330;11.498;2023-04-28T08:27:53;9.07;;;3.70;;
3523;SDS011;1776;53.330;11.498;2023-04-28T08:30:19;6.33;;;3.67;;
3523;SDS011;1776;53.330;11.498;2023-04-28T08:32:45;6.20;;;3.60;;
3523;SDS011;1776;53.330;11.498;2023-04-28T08:35:10;4.23;;;3.00;;
3523;SDS011;1776;53.330;11.498;2023-04-28T08:37:36;5.83;;;3.20;;
3523;SDS011;1776;53.330;11.498;2023-04-28T08:40:02;16.30;;;4.33;;
3523;SDS011;1776;53.330;11.498;2023-04-28T08:42:33;9.53;;;4.57;;
3523;SDS011;1776;53.330;11.498;2023-04-28T08:44:59;5.43;;;4.40;;
3523;SDS011;1776;53.330;11.498;2023-04-28T08:47:30;5.17;;;3.70;;
3523;SDS011;1776;53.330;11.498;2023-04-28T08:49:57;5.63;;;3.27;;
3523;SDS011;1776;53.330;11.498;2023-04-28T08:52:28;6.80;;;3.93;;
3523;SDS011;1776;53.330;11.498;2023-04-28T08:54:53;5.93;;;4.20;;
3523;SDS011;1776;53.330;11.498;2023-04-28T08:57:22;10.03;;;2.93;;
3523;SDS011;1776;53.330;11.498;2023-04-28T08:59:51;4.60;;;3.20;;
3523;SDS011;1776;53.330;11.498;2023-04-28T09:02:17;7.10;;;3.27;;
3523;SDS011;1776;53.330;11.498;2023-04-28T09:04:43;8.07;;;3.97;;
3523;SDS011;1776;53.330;11.498;2023-04-28T09:07:10;7.87;;;4.23;;
3523;SDS011;1776;53.330;11.498;2023-04-28T09:09:36;7.70;;;3.50;;
3523;SDS011;1776;53.330;11.498;2023-04-28T09:12:02;6.10;;;4.37;;
3523;SDS011;1776;53.330;11.498;2023-04-28T09:14:29;4.80;;;3.50;;
3523;SDS011;1776;53.330;11.498;2023-04-28T09:16:57;5.50;;;3.83;;
3523;SDS011;1776;53.330;11.498;2023-04-28T09:19:22;5.57;;;3.53;;
3523;SDS011;1776;53.330;11.498;2023-04-28T09:21:50;6.10;;;4.03;;
3523;SDS011;1776;53.330;11.498;2023-04-28T09:24:27;7.33;;;4.10;;
3523;SDS011;1776;53.330;11.498;2023-04-28T09:26:57;6.70;;;3.80;;
3523;SDS011;1776;53.330;11.498;2023-04-28T09:29:23;17.23;;;4.27;;
3523;SDS011;1776;53.330;11.498;2023-04-28T09:31:48;5.17;;;4.17;;
3523;SDS011;1776;53.330;11.498;2023-04-28T09:34:14;7.60;;;3.60;;
3523;SDS011;1776;53.330;11.498;2023-04-28T09:36:39;6.70;;;4.20;;
3523;SDS011;1776;53.330;11.498;2023-04-28T09:39:05;7.20;;;4.30;;
3523;SDS011;1776;53.330;11.498;2023-04-28T09:41:40;7.53;;;4.50;;
3523;SDS011;1776;53.330;11.498;2023-04-28T09:44:12;10.73;;;5.80;;
3523;SDS011;1776;53.330;11.498;2023-04-28T09:46:39;6.60;;;4.20;;
3523;SDS011;1776;53.330;11.498;2023-04-28T09:49:06;17.20;;;5.60;;
3523;SDS011;1776;53.330;11.498;2023-04-28T09:51:32;24.80;;;6.00;;
3523;SDS011;1776;53.330;11.498;2023-04-28T09:53:59;30.63;;;7.50;;
3523;SDS011;1776;53.330;11.498;2023-04-28T09:56:26;14.30;;;4.60;;
3523;SDS011;1776;53.330;11.498;2023-04-28T09:58:53;11.40;;;5.20;;
3523;SDS011;1776;53.330;11.498;2023-04-28T10:01:21;12.53;;;4.87;;
3523;SDS011;1776;53.330;11.498;2023-04-28T10:03:48;12.13;;;5.10;;
3523;SDS011;1776;53.330;11.498;2023-04-28T10:06:14;5.57;;;3.27;;
3523;SDS011;1776;53.330;11.498;2023-04-28T10:08:39;9.10;;;3.70;;
3523;SDS011;1776;53.330;11.498;2023-04-28T10:11:05;100.17;;;13.07;;
3523;SDS011;1776;53.330;11.498;2023-04-28T10:13:31;85.50;;;11.63;;
3523;SDS011;1776;53.330;11.498;2023-04-28T10:15:56;18.70;;;6.67;;
3523;SDS011;1776;53.330;11.498;2023-04-28T10:18:22;8.37;;;4.57;;
3523;SDS011;1776;53.330;11.498;2023-04-28T10:20:49;13.13;;;4.33;;
3523;SDS011;1776;53.330;11.498;2023-04-28T10:26:13;6.60;;;3.80;;
3523;SDS011;1776;53.330;11.498;2023-04-28T10:28:44;9.47;;;5.43;;
3523;SDS011;1776;53.330;11.498;2023-04-28T10:33:36;6.40;;;4.30;;
3523;SDS011;1776;53.330;11.498;2023-04-28T10:36:03;9.67;;;4.80;;
3523;SDS011;1776;53.330;11.498;2023-04-28T10:38:30;4.10;;;3.70;;
3523;SDS011;1776;53.330;11.498;2023-04-28T10:40:55;7.50;;;3.53;;
3523;SDS011;1776;53.330;11.498;2023-04-28T10:43:34;11.93;;;4.73;;
3523;SDS011;1776;53.330;11.498;2023-04-28T10:46:05;7.83;;;3.80;;
3523;SDS011;1776;53.330;11.498;2023-04-28T10:58:46;7.00;;;4.47;;
3523;SDS011;1776;53.330;11.498;2023-04-28T11:01:34;24.10;;;6.37;;
3523;SDS011;1776;53.330;11.498;2023-04-28T11:06:46;6.37;;;4.27;;
3523;SDS011;1776;53.330;11.498;2023-04-28T11:16:59;6.87;;;5.27;;
3523;SDS011;1776;53.330;11.498;2023-04-28T11:19:29;8.60;;;5.30;;
3523;SDS011;1776;53.330;11.498;2023-04-28T11:22:16;10.30;;;5.10;;
3523;SDS011;1776;53.330;11.498;2023-04-28T11:24:56;11.03;;;4.30;;
3523;SDS011;1776;53.330;11.498;2023-04-28T11:27:23;9.87;;;4.70;;
3523;SDS011;1776;53.330;11.498;2023-04-28T11:29:49;5.93;;;4.30;;
3523;SDS011;1776;53.330;11.498;2023-04-28T11:32:15;7.43;;;4.67;;
3523;SDS011;1776;53.330;11.498;2023-04-28T11:34:40;9.07;;;5.47;;
3523;SDS011;1776;53.330;11.498;2023-04-28T11:37:06;5.60;;;4.23;;
3523;SDS011;1776;53.330;11.498;2023-04-28T11:39:32;9.40;;;5.73;;
3523;SDS011;1776;53.330;11.498;2023-04-28T11:42:04;10.50;;;5.43;;
3523;SDS011;1776;53.330;11.498;2023-04-28T11:44:34;6.40;;;4.93;;
3523;SDS011;1776;53.330;11.498;2023-04-28T11:46:59;9.90;;;5.90;;
3523;SDS011;1776;53.330;11.498;2023-04-28T11:49:27;6.37;;;5.03;;
3523;SDS011;1776;53.330;11.498;2023-04-28T11:51:54;9.93;;;5.43;;
3523;SDS011;1776;53.330;11.498;2023-04-28T11:54:27;7.37;;;5.30;;
3523;SDS011;1776;53.330;11.498;2023-04-28T11:56:53;7.87;;;4.53;;
3523;SDS011;1776;53.330;11.498;2023-04-28T11:59:24;9.73;;;5.87;;
3523;SDS011;1776;53.330;11.498;2023-04-28T12:01:52;9.13;;;5.37;;
3523;SDS011;1776;53.330;11.498;2023-04-28T12:04:32;6.00;;;4.60;;
3523;SDS011;1776;53.330;11.498;2023-04-28T12:07:05;9.27;;;5.03;;
3523;SDS011;1776;53.330;11.498;2023-04-28T12:09:34;10.03;;;5.00;;
3523;SDS011;1776;53.330;11.498;2023-04-28T12:12:00;9.40;;;4.90;;
3523;SDS011;1776;53.330;11.498;2023-04-28T12:14:28;8.00;;;5.60;;
3523;SDS011;1776;53.330;11.498;2023-04-28T12:16:54;6.37;;;4.63;;
3523;SDS011;1776;53.330;11.498;2023-04-28T12:19:20;8.80;;;4.77;;
3523;SDS011;1776;53.330;11.498;2023-04-28T12:21:59;9.40;;;5.63;;
3523;SDS011;1776;53.330;11.498;2023-04-28T12:24:26;6.10;;;4.47;;
3523;SDS011;1776;53.330;11.498;2023-04-28T12:26:51;8.10;;;6.00;;
3523;SDS011;1776;53.330;11.498;2023-04-28T12:29:36;9.03;;;5.90;;
3523;SDS011;1776;53.330;11.498;2023-04-28T12:32:03;7.53;;;5.40;;
3523;SDS011;1776;53.330;11.498;2023-04-28T12:34:30;9.27;;;5.10;;
3523;SDS011;1776;53.330;11.498;2023-04-28T12:36:57;8.20;;;5.77;;
3523;SDS011;1776;53.330;11.498;2023-04-28T12:39:23;7.30;;;5.57;;
3523;SDS011;1776;53.330;11.498;2023-04-28T12:41:48;10.60;;;4.67;;
3523;SDS011;1776;53.330;11.498;2023-04-28T12:44:14;9.67;;;6.40;;
3523;SDS011;1776;53.330;11.498;2023-04-28T12:46:40;6.43;;;5.10;;
3523;SDS011;1776;53.330;11.498;2023-04-28T12:49:05;11.03;;;4.77;;
3523;SDS011;1776;53.330;11.498;2023-04-28T12:51:31;8.43;;;5.60;;
3523;SDS011;1776;53.330;11.498;2023-04-28T12:53:58;22.60;;;6.00;;
3523;SDS011;1776;53.330;11.498;2023-04-28T12:56:24;10.37;;;6.40;;
3523;SDS011;1776;53.330;11.498;2023-04-28T12:58:49;9.43;;;4.87;;
3523;SDS011;1776;53.330;11.498;2023-04-28T13:01:15;13.70;;;7.10;;
3523;SDS011;1776;53.330;11.498;2023-04-28T13:03:40;13.70;;;6.43;;
3523;SDS011;1776;53.330;11.498;2023-04-28T13:06:07;12.17;;;5.37;;
3523;SDS011;1776;53.330;11.498;2023-04-28T13:08:34;6.63;;;4.77;;
3523;SDS011;1776;53.330;11.498;2023-04-28T13:11:00;15.97;;;6.37;;
3523;SDS011;1776;53.330;11.498;2023-04-28T13:13:25;9.23;;;5.97;;
3523;SDS011;1776;53.330;11.498;2023-04-28T13:15:50;14.87;;;5.97;;
3523;SDS011;1776;53.330;11.498;2023-04-28T13:18:16;7.80;;;5.80;;
3523;SDS011;1776;53.330;11.498;2023-04-28T13:20:41;17.43;;;6.53;;
3523;SDS011;1776;53.330;11.498;2023-04-28T13:23:06;9.17;;;6.10;;
3523;SDS011;1776;53.330;11.498;2023-04-28T13:25:32;7.37;;;4.70;;
3523;SDS011;1776;53.330;11.498;2023-04-28T13:27:57;7.33;;;5.20;;
3523;SDS011;1776;53.330;11.498;2023-04-28T13:30:22;8.43;;;5.37;;
3523;SDS011;1776;53.330;11.498;2023-04-28T13:32:47;7.90;;;5.53;;
3523;SDS011;1776;53.330;11.498;2023-04-28T13:35:13;9.37;;;5.80;;
3523;SDS011;1776;53.330;11.498;2023-04-28T13:37:38;11.03;;;6.03;;
3523;SDS011;1776;53.330;11.498;2023-04-28T13:40:09;8.57;;;6.10;;
3523;SDS011;1776;53.330;11.498;2023-04-28T13:42:35;9.10;;;5.40;;
3523;SDS011;1776;53.330;11.498;2023-04-28T13:45:00;12.73;;;6.70;;
3523;SDS011;1776;53.330;11.498;2023-04-28T13:47:26;7.20;;;5.00;;
3523;SDS011;1776;53.330;11.498;2023-04-28T13:49:51;8.23;;;5.90;;
3523;SDS011;1776;53.330;11.498;2023-04-28T13:52:17;8.13;;;5.90;;
3523;SDS011;1776;53.330;11.498;2023-04-28T13:54:42;7.70;;;6.33;;
3523;SDS011;1776;53.330;11.498;2023-04-28T13:57:08;10.73;;;5.50;;
3523;SDS011;1776;53.330;11.498;2023-04-28T13:59:33;8.60;;;6.33;;
3523;SDS011;1776;53.330;11.498;2023-04-28T14:01:58;13.40;;;6.10;;
3523;SDS011;1776;53.330;11.498;2023-04-28T14:04:24;12.90;;;7.33;;
3523;SDS011;1776;53.330;11.498;2023-04-28T14:06:50;11.83;;;5.50;;
3523;SDS011;1776;53.330;11.498;2023-04-28T14:09:16;9.23;;;6.00;;
3523;SDS011;1776;53.330;11.498;2023-04-28T14:11:41;7.43;;;5.73;;
3523;SDS011;1776;53.330;11.498;2023-04-28T14:14:06;7.90;;;5.47;;
3523;SDS011;1776;53.330;11.498;2023-04-28T14:16:32;11.07;;;6.23;;
3523;SDS011;1776;53.330;11.498;2023-04-28T14:18:57;13.80;;;6.70;;
3523;SDS011;1776;53.330;11.498;2023-04-28T14:21:23;7.40;;;5.90;;
3523;SDS011;1776;53.330;11.498;2023-04-28T14:23:48;9.27;;;5.80;;
3523;SDS011;1776;53.330;11.498;2023-04-28T14:26:13;11.63;;;6.53;;
3523;SDS011;1776;53.330;11.498;2023-04-28T14:28:38;7.47;;;4.90;;
3523;SDS011;1776;53.330;11.498;2023-04-28T14:31:04;11.73;;;6.43;;
3523;SDS011;1776;53.330;11.498;2023-04-28T14:33:32;12.80;;;6.30;;
3523;SDS011;1776;53.330;11.498;2023-04-28T14:35:57;10.17;;;6.10;;
3523;SDS011;1776;53.330;11.498;2023-04-28T14:38:24;13.27;;;7.13;;
3523;SDS011;1776;53.330;11.498;2023-04-28T14:40:49;9.23;;;6.50;;
3523;SDS011;1776;53.330;11.498;2023-04-28T14:43:15;7.60;;;5.47;;
3523;SDS011;1776;53.330;11.498;2023-04-28T14:45:40;18.20;;;7.30;;
3523;SDS011;1776;53.330;11.498;2023-04-28T14:48:06;6.10;;;5.30;;
3523;SDS011;1776;53.330;11.498;2023-04-28T14:50:31;6.50;;;5.00;;
3523;SDS011;1776;53.330;11.498;2023-04-28T14:52:57;9.97;;;6.10;;
3523;SDS011;1776;53.330;11.498;2023-04-28T14:55:29;11.53;;;5.27;;
3523;SDS011;1776;53.330;11.498;2023-04-28T14:57:54;7.73;;;6.17;;
3523;SDS011;1776;53.330;11.498;2023-04-28T15:00:20;7.27;;;5.63;;
3523;SDS011;1776;53.330;11.498;2023-04-28T15:02:46;10.40;;;6.07;;
3523;SDS011;1776;53.330;11.498;2023-04-28T15:05:11;13.20;;;6.83;;
3523;SDS011;1776;53.330;11.498;2023-04-28T15:07:37;8.47;;;5.30;;
3523;SDS011;1776;53.330;11.498;2023-04-28T15:10:02;7.77;;;5.73;;
3523;SDS011;1776;53.330;11.498;2023-04-28T15:12:27;15.63;;;6.77;;
3523;SDS011;1776;53.330;11.498;2023-04-28T15:14:56;10.20;;;5.97;;
3523;SDS011;1776;53.330;11.498;2023-04-28T15:17:22;8.60;;;5.20;;
3523;SDS011;1776;53.330;11.498;2023-04-28T15:19:47;7.63;;;5.40;;